createdAt,value
2024-01-15T00:00:44.299Z,14.03
2024-01-15T00:03:12.239Z,15.03
2024-01-15T00:05:39.887Z,13.13
2024-01-15T00:08:07.070Z,13.50
2024-01-15T00:10:34.031Z,13.53
2024-01-15T00:13:01.242Z,12.67
2024-01-15T00:15:29.820Z,13.80
2024-01-15T00:17:57.691Z,13.10
2024-01-15T00:20:25.558Z,12.67
2024-01-15T00:22:53.823Z,13.03
2024-01-15T00:25:21.128Z,12.93
2024-01-15T00:27:48.195Z,13.07
2024-01-15T00:30:15.665Z,12.97
2024-01-15T00:32:42.691Z,13.07
2024-01-15T00:35:10.169Z,13.63
2024-01-15T00:37:37.083Z,13.63
2024-01-15T00:40:05.873Z,13.70
2024-01-15T00:42:32.925Z,14.37
2024-01-15T00:44:59.999Z,12.93
2024-01-15T00:47:27.697Z,12.57
2024-01-15T00:49:54.736Z,13.30
2024-01-15T00:52:21.660Z,13.03
2024-01-15T00:54:48.660Z,12.37
2024-01-15T00:57:15.653Z,12.00
2024-01-15T00:59:42.988Z,13.27
2024-01-15T01:02:10.195Z,13.43
2024-01-15T01:04:37.497Z,13.63
2024-01-15T01:07:04.695Z,13.37
2024-01-15T01:09:31.799Z,12.70
2024-01-15T01:11:58.754Z,13.07
2024-01-15T01:14:25.716Z,12.17
2024-01-15T01:16:52.916Z,12.63
2024-01-15T01:19:20.680Z,12.47
2024-01-15T01:21:47.816Z,13.30
2024-01-15T01:24:15.274Z,11.97
2024-01-15T01:26:42.513Z,12.03
2024-01-15T01:29:09.529Z,12.03
2024-01-15T01:31:36.894Z,12.37
2024-01-15T01:34:04.623Z,11.50
2024-01-15T01:36:33.756Z,12.03
2024-01-15T01:39:00.660Z,11.40
2024-01-15T01:41:27.875Z,10.77
2024-01-15T01:43:55.219Z,11.27
2024-01-15T01:46:22.324Z,11.77
2024-01-15T01:48:49.790Z,11.53
2024-01-15T01:51:17.553Z,11.20
2024-01-15T01:53:46.727Z,11.90
2024-01-15T01:56:16.216Z,13.43
2024-01-15T01:58:43.775Z,12.33
2024-01-15T02:01:11.766Z,11.77
2024-01-15T02:03:41.311Z,11.67
2024-01-15T02:06:09.108Z,11.60
2024-01-15T02:08:37.528Z,11.63
2024-01-15T02:11:05.187Z,12.33
2024-01-15T02:13:32.212Z,12.63
2024-01-15T02:15:59.193Z,12.97
2024-01-15T02:18:26.357Z,12.50
2024-01-15T02:20:53.263Z,11.93
2024-01-15T02:23:20.253Z,11.53
2024-01-15T02:25:48.745Z,12.67
2024-01-15T02:28:18.764Z,12.57
2024-01-15T02:30:46.614Z,13.00
2024-01-15T02:33:14.494Z,13.73
2024-01-15T02:35:41.936Z,12.63
2024-01-15T02:38:09.888Z,12.50
2024-01-15T02:40:38.093Z,13.93
2024-01-15T02:43:05.501Z,13.73
2024-01-15T02:45:32.576Z,13.00
2024-01-15T02:47:59.831Z,13.60
2024-01-15T02:50:26.791Z,13.33
2024-01-15T02:52:54.555Z,12.87
2024-01-15T02:55:21.440Z,13.67
2024-01-15T02:57:49.019Z,12.80
2024-01-15T03:00:16.778Z,11.00
2024-01-15T03:02:48.486Z,11.60
2024-01-15T03:05:16.161Z,11.43
2024-01-15T03:07:44.273Z,12.47
2024-01-15T03:10:11.308Z,12.10
2024-01-15T03:12:38.324Z,13.03
2024-01-15T03:15:06.130Z,11.80
2024-01-15T03:17:33.447Z,11.80
2024-01-15T03:20:00.856Z,11.27
2024-01-15T03:22:28.125Z,11.60
2024-01-15T03:24:55.131Z,14.20
2024-01-15T03:27:22.313Z,14.20
2024-01-15T03:29:49.290Z,13.17
2024-01-15T03:32:17.486Z,15.70
2024-01-15T03:34:44.561Z,16.37
2024-01-15T03:37:11.505Z,17.33
2024-01-15T03:39:38.812Z,16.23
2024-01-15T03:42:06.374Z,15.10
2024-01-15T03:44:33.336Z,16.10
2024-01-15T03:47:00.578Z,16.37
2024-01-15T03:49:27.622Z,16.73
2024-01-15T03:51:55.600Z,17.37
2024-01-15T03:54:22.899Z,16.77
2024-01-15T03:56:49.893Z,16.13
2024-01-15T03:59:20.036Z,15.77
2024-01-15T04:01:51.940Z,15.37
2024-01-15T04:04:20.302Z,15.40
2024-01-15T04:06:47.854Z,16.23
2024-01-15T04:09:15.285Z,16.27
2024-01-15T04:11:42.801Z,16.27
2024-01-15T04:14:10.036Z,16.17
2024-01-15T04:16:38.965Z,15.73
2024-01-15T04:19:06.102Z,16.07
2024-01-15T04:21:33.750Z,15.37
2024-01-15T04:24:01.108Z,14.03
2024-01-15T04:26:28.249Z,14.47
2024-01-15T04:28:55.165Z,14.30
2024-01-15T04:31:28.425Z,15.33
2024-01-15T04:33:56.027Z,15.20
2024-01-15T04:36:23.358Z,14.63
2024-01-15T04:38:50.440Z,16.33
2024-01-15T04:41:18.584Z,14.60
2024-01-15T04:43:46.152Z,14.87
2024-01-15T04:46:13.490Z,14.67
2024-01-15T04:48:40.461Z,14.80
2024-01-15T04:51:10.449Z,15.20
2024-01-15T04:53:37.520Z,15.50
2024-01-15T04:56:05.058Z,14.47
2024-01-15T04:58:32.357Z,14.90
2024-01-15T05:00:59.484Z,15.33
2024-01-15T05:03:26.570Z,15.37
2024-01-15T05:05:53.954Z,16.20
2024-01-15T05:08:21.767Z,16.20
2024-01-15T05:10:49.776Z,14.97
2024-01-15T05:13:16.841Z,14.97
2024-01-15T05:15:44.436Z,15.23
2024-01-15T05:18:11.555Z,15.07
2024-01-15T05:20:38.598Z,14.57
2024-01-15T05:23:05.553Z,15.17
2024-01-15T05:25:32.859Z,15.30
2024-01-15T05:28:00.001Z,15.83
2024-01-15T05:30:27.284Z,13.80
2024-01-15T05:32:54.531Z,14.30
2024-01-15T05:35:21.774Z,15.93
2024-01-15T05:37:49.386Z,14.77
2024-01-15T05:40:16.438Z,13.13
2024-01-15T05:42:43.433Z,13.27
2024-01-15T05:45:11.119Z,13.70
2024-01-15T05:47:38.241Z,14.83
2024-01-15T05:50:06.204Z,13.63
2024-01-15T05:52:33.241Z,14.50
2024-01-15T05:55:00.355Z,12.77
2024-01-15T05:57:27.736Z,14.30
2024-01-15T05:59:55.763Z,13.53
2024-01-15T06:02:22.772Z,13.47
2024-01-15T06:04:50.081Z,13.03
2024-01-15T06:07:18.302Z,14.87
2024-01-15T06:09:45.663Z,14.07
2024-01-15T06:12:12.941Z,13.87
2024-01-15T06:14:39.851Z,13.17
2024-01-15T06:17:06.834Z,12.27
2024-01-15T06:19:34.337Z,14.43
2024-01-15T06:22:01.422Z,14.17
2024-01-15T06:24:28.623Z,13.80
2024-01-15T06:26:55.607Z,13.07
2024-01-15T06:29:22.549Z,14.47
2024-01-15T06:31:50.241Z,13.37
2024-01-15T06:34:17.463Z,12.47
2024-01-15T06:36:44.831Z,14.53
2024-01-15T06:39:12.477Z,13.80
2024-01-15T06:41:44.967Z,13.50
2024-01-15T06:44:13.115Z,13.73
2024-01-15T06:46:49.743Z,13.40
2024-01-15T06:49:17.073Z,17.63
2024-01-15T06:51:46.332Z,13.80
2024-01-15T06:54:14.968Z,15.70
2024-01-15T06:56:41.949Z,13.33
2024-01-15T06:59:08.971Z,13.87
2024-01-15T07:01:36.711Z,13.07
2024-01-15T07:04:04.692Z,13.23
2024-01-15T07:06:32.583Z,12.17
2024-01-15T07:08:59.834Z,12.80
2024-01-15T07:11:27.017Z,11.23
2024-01-15T07:13:54.679Z,11.17
2024-01-15T07:16:34.660Z,10.43
2024-01-15T07:19:04.950Z,11.73
2024-01-15T07:21:32.221Z,11.40
2024-01-15T07:23:59.670Z,12.33
2024-01-15T07:26:27.122Z,12.70
2024-01-15T07:28:54.701Z,11.93
2024-01-15T07:31:24.554Z,11.80
2024-01-15T07:33:51.838Z,9.80
2024-01-15T07:36:18.935Z,10.17
2024-01-15T07:38:46.185Z,10.23
2024-01-15T07:41:15.620Z,9.87
2024-01-15T07:43:43.576Z,9.63
2024-01-15T07:46:10.575Z,8.70
2024-01-15T07:48:37.714Z,8.40
2024-01-15T07:51:05.672Z,8.77
2024-01-15T07:53:32.680Z,8.63
2024-01-15T07:55:59.775Z,8.70
2024-01-15T07:58:26.895Z,9.50
2024-01-15T08:00:54.325Z,7.60
2024-01-15T08:03:21.429Z,9.33
2024-01-15T08:05:48.835Z,10.13
2024-01-15T08:08:15.848Z,9.80
2024-01-15T08:10:43.167Z,9.67
2024-01-15T08:13:10.551Z,9.60
2024-01-15T08:15:38.083Z,7.77
2024-01-15T08:18:05.449Z,10.00
2024-01-15T08:20:32.799Z,9.00
2024-01-15T08:23:00.132Z,10.77
2024-01-15T08:25:27.242Z,7.80
2024-01-15T08:27:54.299Z,8.47
2024-01-15T08:30:22.379Z,7.43
2024-01-15T08:32:49.354Z,7.63
2024-01-15T08:35:17.167Z,7.33
2024-01-15T08:37:44.560Z,7.93
2024-01-15T08:40:12.442Z,7.67
2024-01-15T08:42:39.754Z,7.70
2024-01-15T08:45:07.098Z,7.13
2024-01-15T08:47:34.304Z,7.07
2024-01-15T08:50:02.405Z,8.17
2024-01-15T08:52:29.666Z,7.73
2024-01-15T08:54:59.063Z,8.73
2024-01-15T08:57:26.149Z,8.50
2024-01-15T08:59:55.279Z,8.10
2024-01-15T09:02:23.068Z,8.83
2024-01-15T09:04:50.338Z,8.43
2024-01-15T09:07:17.516Z,8.33
2024-01-15T09:09:44.810Z,9.70
2024-01-15T09:12:12.157Z,9.93
2024-01-15T09:14:41.207Z,9.83
2024-01-15T09:17:08.141Z,9.73
2024-01-15T09:19:35.522Z,10.03
2024-01-15T09:22:03.068Z,9.03
2024-01-15T09:24:30.387Z,8.63
2024-01-15T09:26:57.608Z,8.10
2024-01-15T09:29:29.559Z,9.60
2024-01-15T09:31:56.900Z,10.23
2024-01-15T09:34:24.319Z,10.20
2024-01-15T09:36:51.905Z,9.73
2024-01-15T09:39:19.595Z,11.20
2024-01-15T09:41:47.402Z,12.20
2024-01-15T09:44:15.106Z,13.10
2024-01-15T09:46:44.165Z,12.53
2024-01-15T09:49:12.168Z,10.70
2024-01-15T09:51:41.449Z,12.37
2024-01-15T09:54:09.895Z,12.37
2024-01-15T09:56:37.325Z,10.57
2024-01-15T09:59:08.001Z,11.03
2024-01-15T10:01:38.127Z,10.13
2024-01-15T10:04:05.350Z,10.20
2024-01-15T10:06:33.798Z,8.93
2024-01-15T10:09:01.849Z,9.17
2024-01-15T10:11:29.575Z,10.90
2024-01-15T10:13:58.603Z,9.47
2024-01-15T10:16:26.584Z,9.67
2024-01-15T10:18:53.734Z,8.30
2024-01-15T10:21:20.891Z,9.03
2024-01-15T10:23:48.553Z,9.40
2024-01-15T10:26:18.537Z,9.33
2024-01-15T10:28:46.630Z,9.03
2024-01-15T10:31:13.745Z,8.77
2024-01-15T10:33:41.138Z,7.40
2024-01-15T10:36:12.546Z,7.77
2024-01-15T10:38:39.540Z,7.97
2024-01-15T10:41:06.967Z,7.03
2024-01-15T10:43:35.675Z,7.03
2024-01-15T10:46:03.712Z,7.30
2024-01-15T10:48:32.351Z,7.30
2024-01-15T10:50:59.780Z,6.27
2024-01-15T10:53:27.618Z,7.60
2024-01-15T10:55:54.938Z,6.67
2024-01-15T10:58:24.516Z,6.10
2024-01-15T11:00:52.439Z,6.90
2024-01-15T11:03:20.101Z,5.83
2024-01-15T11:05:48.176Z,6.50
2024-01-15T11:08:20.084Z,6.43
2024-01-15T11:10:53.673Z,6.03
2024-01-15T11:13:41.399Z,6.03
2024-01-15T11:16:11.400Z,6.03
2024-01-15T11:18:42.660Z,6.20
2024-01-15T11:21:18.198Z,5.13
2024-01-15T11:23:58.655Z,5.77
2024-01-15T11:26:47.408Z,4.90
2024-01-15T11:29:31.082Z,4.43
2024-01-15T11:32:11.802Z,4.83
2024-01-15T11:35:03.481Z,5.60
2024-01-15T11:37:55.664Z,5.00
2024-01-15T11:40:39.242Z,4.43
2024-01-15T11:43:08.439Z,4.03
2024-01-15T11:45:36.360Z,4.17
2024-01-15T11:48:16.048Z,3.70
2024-01-15T11:50:51.378Z,3.60
2024-01-15T11:53:42.098Z,3.53
2024-01-15T11:56:20.577Z,3.10
2024-01-15T11:58:48.332Z,2.93
2024-01-15T12:01:15.550Z,3.07
2024-01-15T12:03:43.309Z,2.73
2024-01-15T12:06:11.780Z,2.60
2024-01-15T12:08:38.852Z,2.53
2024-01-15T12:11:15.281Z,2.43
2024-01-15T12:13:42.323Z,2.30
2024-01-15T12:16:09.695Z,2.00
2024-01-15T12:18:37.247Z,2.40
2024-01-15T12:21:05.791Z,1.97
2024-01-15T12:23:33.078Z,2.17
2024-01-15T12:26:00.589Z,1.87
2024-01-15T12:28:29.949Z,2.00
2024-01-15T12:30:57.491Z,2.13
2024-01-15T12:33:24.730Z,2.30
2024-01-15T12:35:55.059Z,2.20
2024-01-15T12:38:22.182Z,2.83
2024-01-15T12:40:49.991Z,2.80
2024-01-15T12:43:17.011Z,3.20
2024-01-15T12:45:44.551Z,2.83
2024-01-15T12:48:12.312Z,3.30
2024-01-15T12:50:39.322Z,3.50
2024-01-15T12:53:06.448Z,3.57
2024-01-15T12:55:35.855Z,3.20
2024-01-15T12:58:03.222Z,3.27
2024-01-15T13:00:30.445Z,3.50
2024-01-15T13:02:59.056Z,4.17
2024-01-15T13:05:28.536Z,3.63
2024-01-15T13:07:56.070Z,3.63
2024-01-15T13:10:25.553Z,3.90
2024-01-15T13:12:53.520Z,3.90
2024-01-15T13:15:20.599Z,3.83
2024-01-15T13:17:47.835Z,4.43
2024-01-15T13:20:15.085Z,4.30
2024-01-15T13:22:45.707Z,4.80
2024-01-15T13:25:13.513Z,4.53
2024-01-15T13:27:41.897Z,4.57
2024-01-15T13:30:11.776Z,5.40
2024-01-15T13:32:39.177Z,4.73
2024-01-15T13:35:08.930Z,5.13
2024-01-15T13:37:36.324Z,5.27
2024-01-15T13:40:05.141Z,4.90
2024-01-15T13:42:32.188Z,5.50
2024-01-15T13:44:59.508Z,4.70
2024-01-15T13:47:26.653Z,4.23
2024-01-15T13:49:53.903Z,5.07
2024-01-15T13:52:20.805Z,4.87
2024-01-15T13:54:50.462Z,4.33
2024-01-15T13:57:21.340Z,5.10
2024-01-15T13:59:50.680Z,5.60
2024-01-15T14:02:20.898Z,5.10
2024-01-15T14:04:50.255Z,4.80
2024-01-15T14:07:18.400Z,5.53
2024-01-15T14:09:45.528Z,5.77
2024-01-15T14:12:13.145Z,5.20
2024-01-15T14:14:41.618Z,5.43
2024-01-15T14:17:08.903Z,5.70
2024-01-15T14:19:36.775Z,6.03
2024-01-15T14:22:04.883Z,6.17
2024-01-15T14:24:32.185Z,6.00
2024-01-15T14:26:59.903Z,5.57
2024-01-15T14:29:28.094Z,6.07
2024-01-15T14:31:55.286Z,5.40
2024-01-15T14:34:25.267Z,5.80
2024-01-15T14:36:56.265Z,5.03
2024-01-15T14:39:24.919Z,5.13
2024-01-15T14:41:52.856Z,5.27
2024-01-15T14:44:20.432Z,7.37
2024-01-15T14:46:48.000Z,6.23
2024-01-15T14:49:16.039Z,5.50
2024-01-15T14:51:43.578Z,4.93
2024-01-15T14:54:12.206Z,5.47
2024-01-15T14:56:39.067Z,5.70
2024-01-15T14:59:06.310Z,5.67
2024-01-15T15:01:33.633Z,5.50
2024-01-15T15:04:00.797Z,6.40
2024-01-15T15:06:29.480Z,5.87
2024-01-15T15:08:58.909Z,5.37
2024-01-15T15:11:27.220Z,6.10
2024-01-15T15:13:54.233Z,5.10
2024-01-15T15:16:21.470Z,4.70
2024-01-15T15:18:48.722Z,4.93
2024-01-15T15:21:16.088Z,4.93
2024-01-15T15:23:43.446Z,4.67
2024-01-15T15:26:10.930Z,3.90
2024-01-15T15:28:38.407Z,4.00
2024-01-15T15:31:11.033Z,4.07
2024-01-15T15:33:38.463Z,3.63
2024-01-15T15:36:06.699Z,3.67
2024-01-15T15:38:34.817Z,3.90
2024-01-15T15:41:02.364Z,3.60
2024-01-15T15:43:30.603Z,3.37
2024-01-15T15:46:01.399Z,3.87
2024-01-15T15:48:28.732Z,3.90
2024-01-15T15:50:57.271Z,3.40
2024-01-15T15:53:26.113Z,3.10
2024-01-15T15:55:53.643Z,3.47
2024-01-15T15:58:21.424Z,3.23
2024-01-15T16:00:48.778Z,3.33
2024-01-15T16:03:16.454Z,3.70
2024-01-15T16:05:51.900Z,3.27
2024-01-15T16:08:21.441Z,3.90
2024-01-15T16:10:53.631Z,3.73
2024-01-15T16:13:21.345Z,3.50
2024-01-15T16:15:49.177Z,7.40
2024-01-15T16:23:20.085Z,3.50
2024-01-15T16:23:34.764Z,3.07
2024-01-15T16:24:12.266Z,3.30
2024-01-15T16:26:42.692Z,2.93
2024-01-15T16:29:10.663Z,3.80
2024-01-15T16:31:39.708Z,3.50
2024-01-15T16:34:09.729Z,4.00
2024-01-15T16:36:38.846Z,3.87
2024-01-15T16:39:06.020Z,3.33
2024-01-15T16:41:33.077Z,3.40
2024-01-15T16:44:00.432Z,3.53
2024-01-15T16:46:27.431Z,3.43
2024-01-15T16:48:54.556Z,3.43
2024-01-15T16:51:22.164Z,3.10
2024-01-15T16:53:49.216Z,3.43
2024-01-15T16:56:16.719Z,3.50
2024-01-15T16:58:44.083Z,3.50
2024-01-15T17:01:11.697Z,3.20
2024-01-15T17:03:40.050Z,3.80
2024-01-15T17:06:07.539Z,3.90
2024-01-15T17:08:35.136Z,3.73
2024-01-15T17:11:03.065Z,3.23
2024-01-15T17:13:30.344Z,3.70
2024-01-15T17:15:57.414Z,3.20
2024-01-15T17:18:27.361Z,3.37
2024-01-15T17:20:55.230Z,3.93
2024-01-15T17:23:22.541Z,3.57
2024-01-15T17:25:50.042Z,3.97
2024-01-15T17:28:18.425Z,3.73
2024-01-15T17:30:48.251Z,3.30
2024-01-15T17:33:15.441Z,3.70
2024-01-15T17:35:55.362Z,3.40
2024-01-15T17:38:22.368Z,3.47
2024-01-15T17:40:49.719Z,3.40
2024-01-15T17:43:17.461Z,3.60
2024-01-15T17:45:44.696Z,3.90
2024-01-15T17:48:12.195Z,3.80
2024-01-15T17:50:40.501Z,4.10
2024-01-15T17:53:07.829Z,3.77
2024-01-15T17:55:35.160Z,3.93
2024-01-15T17:58:02.419Z,4.40
2024-01-15T18:00:29.848Z,4.40
2024-01-15T18:02:57.107Z,7.40
2024-01-15T18:05:24.262Z,8.13
2024-01-15T18:07:53.588Z,6.50
2024-01-15T18:10:20.496Z,5.67
2024-01-15T18:12:47.499Z,5.87
2024-01-15T18:15:14.935Z,8.70
2024-01-15T18:17:42.601Z,8.80
2024-01-15T18:20:11.149Z,16.30
2024-01-15T18:22:38.166Z,10.30
2024-01-15T18:25:05.816Z,7.67
2024-01-15T18:27:32.747Z,7.63
2024-01-15T18:30:00.145Z,7.17
2024-01-15T18:32:27.775Z,8.50
2024-01-15T18:34:55.101Z,7.40
2024-01-15T18:37:22.416Z,7.60
2024-01-15T18:39:49.932Z,7.00
2024-01-15T18:42:18.222Z,9.00
2024-01-15T18:44:45.241Z,6.47
2024-01-15T18:47:12.276Z,6.80
2024-01-15T18:49:39.246Z,6.20
2024-01-15T18:52:06.935Z,7.67
2024-01-15T18:54:34.144Z,10.63
2024-01-15T18:57:01.246Z,7.47
2024-01-15T18:59:32.969Z,8.00
2024-01-15T19:02:01.469Z,6.43
2024-01-15T19:04:28.523Z,8.20
2024-01-15T19:06:55.568Z,7.17
2024-01-15T19:09:22.425Z,8.90
2024-01-15T19:11:49.833Z,7.83
2024-01-15T19:14:16.774Z,8.00
2024-01-15T19:16:43.982Z,6.43
2024-01-15T19:19:11.070Z,6.63
2024-01-15T19:21:38.130Z,7.13
2024-01-15T19:24:05.782Z,6.80
2024-01-15T19:26:33.444Z,6.73
2024-01-15T19:29:00.844Z,7.13
2024-01-15T19:31:30.824Z,7.03
2024-01-15T19:33:58.308Z,7.90
2024-01-15T19:36:30.292Z,8.13
2024-01-15T19:38:57.458Z,7.40
2024-01-15T19:41:25.435Z,7.80
2024-01-15T19:43:56.117Z,7.97
2024-01-15T19:46:25.133Z,8.90
2024-01-15T19:48:52.428Z,8.63
2024-01-15T19:51:19.435Z,7.63
2024-01-15T19:53:47.782Z,6.40
2024-01-15T19:56:18.291Z,6.90
2024-01-15T19:58:46.151Z,7.33
2024-01-15T20:01:13.402Z,5.97
2024-01-15T20:03:42.777Z,7.27
2024-01-15T20:06:13.066Z,9.07
2024-01-15T20:08:44.906Z,9.43
2024-01-15T20:11:12.548Z,8.83
2024-01-15T20:13:41.283Z,7.93
2024-01-15T20:16:15.144Z,7.33
2024-01-15T20:18:43.591Z,7.70
2024-01-15T20:21:11.416Z,6.60
2024-01-15T20:23:50.266Z,6.33
2024-01-15T20:26:23.081Z,6.43
2024-01-15T20:28:50.290Z,6.27
2024-01-15T20:31:18.014Z,6.13
2024-01-15T20:33:45.093Z,5.93
2024-01-15T20:36:14.283Z,7.40
2024-01-15T20:38:41.645Z,7.10
2024-01-15T20:41:09.029Z,5.10
2024-01-15T20:43:36.233Z,6.80
2024-01-15T20:46:03.872Z,6.83
2024-01-15T20:48:31.590Z,7.47
2024-01-15T20:50:59.568Z,6.80
2024-01-15T20:53:29.074Z,6.63
2024-01-15T20:55:56.220Z,7.03
2024-01-15T20:58:26.720Z,7.43
2024-01-15T21:00:53.853Z,6.90
2024-01-15T21:03:20.986Z,6.60
2024-01-15T21:05:48.054Z,7.07
2024-01-15T21:08:16.815Z,6.27
2024-01-15T21:10:43.785Z,6.67
2024-01-15T21:13:10.713Z,6.40
2024-01-15T21:15:39.869Z,6.47
2024-01-15T21:18:07.663Z,7.30
2024-01-15T21:20:34.877Z,7.50
2024-01-15T21:23:03.520Z,8.20
2024-01-15T21:25:31.948Z,8.90
2024-01-15T21:27:58.965Z,8.40
2024-01-15T21:30:26.618Z,9.50
2024-01-15T21:32:53.768Z,8.40
2024-01-15T21:35:21.005Z,7.97
2024-01-15T21:37:47.960Z,9.13
2024-01-15T21:40:15.673Z,8.50
2024-01-15T21:42:42.588Z,7.47
2024-01-15T21:45:10.487Z,8.53
2024-01-15T21:47:38.779Z,8.93
2024-01-15T21:50:10.045Z,9.57
2024-01-15T21:52:37.331Z,9.37
2024-01-15T21:55:06.992Z,10.10
2024-01-15T21:57:34.397Z,8.87
2024-01-15T22:00:07.284Z,10.07
2024-01-15T22:02:37.579Z,9.77
2024-01-15T22:05:04.845Z,9.57
2024-01-15T22:07:31.895Z,9.33
2024-01-15T22:09:58.992Z,7.93
2024-01-15T22:12:26.240Z,9.40
2024-01-15T22:14:53.130Z,7.83
2024-01-15T22:17:21.082Z,8.77
2024-01-15T22:19:48.435Z,9.27
2024-01-15T22:22:15.352Z,7.17
2024-01-15T22:24:42.349Z,8.73
2024-01-15T22:27:09.232Z,9.10
2024-01-15T22:29:36.353Z,9.00
2024-01-15T22:32:04.108Z,9.33
2024-01-15T22:34:31.128Z,8.53
2024-01-15T22:36:58.251Z,7.73
2024-01-15T22:39:25.137Z,9.00
2024-01-15T22:41:52.064Z,8.93
2024-01-15T22:44:18.971Z,9.93
2024-01-15T22:46:46.371Z,9.10
2024-01-15T22:49:13.881Z,9.73
2024-01-15T22:51:40.795Z,9.00
2024-01-15T22:54:08.330Z,8.87
2024-01-15T22:56:35.256Z,7.67
2024-01-15T22:59:02.489Z,7.17
2024-01-15T23:01:29.901Z,8.13
2024-01-15T23:03:57.189Z,7.67
2024-01-15T23:06:24.091Z,8.30
2024-01-15T23:08:51.465Z,7.03
2024-01-15T23:11:18.807Z,6.83
2024-01-15T23:13:45.862Z,7.50
2024-01-15T23:16:14.654Z,7.93
2024-01-15T23:18:42.995Z,7.90
2024-01-15T23:21:10.880Z,8.23
2024-01-15T23:23:38.253Z,7.53
2024-01-15T23:26:07.790Z,7.93
2024-01-15T23:28:35.830Z,6.93
2024-01-15T23:31:02.998Z,7.50
2024-01-15T23:33:30.223Z,6.97
2024-01-15T23:35:57.738Z,7.43
2024-01-15T23:38:24.842Z,7.07
2024-01-15T23:40:52.018Z,6.73
2024-01-15T23:43:19.305Z,7.23
2024-01-15T23:45:51.195Z,7.03
2024-01-15T23:48:23.113Z,6.97
2024-01-15T23:50:50.300Z,5.77
2024-01-15T23:53:18.039Z,5.30
2024-01-15T23:55:44.991Z,6.53
2024-01-15T23:58:11.930Z,6.37
